sensor_id;sensor_type;location;lat;lon;timestamp;pressure;altitude;pressure_sealevel;temperature;humidity
21395;BME280;10858;42.714;23.180;2023-02-03T00:01:44;94619.22;;;3.07;75.64
21395;BME280;10858;42.714;23.180;2023-02-03T00:04:10;94633.09;;;3.09;76.06
21395;BME280;10858;42.714;23.180;2023-02-03T00:06:36;94630.22;;;3.14;76.82
21395;BME280;10858;42.714;23.180;2023-02-03T00:09:02;94625.28;;;3.39;75.98
21395;BME280;10858;42.714;23.180;2023-02-03T00:11:30;94629.59;;;3.40;75.08
21395;BME280;10858;42.714;23.180;2023-02-03T00:13:56;94622.94;;;3.34;75.70
21395;BME280;10858;42.714;23.180;2023-02-03T00:16:23;94627.50;;;3.31;75.65
21395;BME280;10858;42.714;23.180;2023-02-03T00:18:49;94629.09;;;3.33;75.62
21395;BME280;10858;42.714;23.180;2023-02-03T00:21:15;94633.03;;;3.26;75.84
21395;BME280;10858;42.714;23.180;2023-02-03T00:23:42;94641.53;;;3.30;75.57
21395;BME280;10858;42.714;23.180;2023-02-03T00:26:14;94643.97;;;3.33;75.93
21395;BME280;10858;42.714;23.180;2023-02-03T00:28:41;94638.59;;;3.36;75.55
21395;BME280;10858;42.714;23.180;2023-02-03T00:31:15;94644.91;;;3.47;75.55
21395;BME280;10858;42.714;23.180;2023-02-03T00:33:41;94649.91;;;3.36;75.27
21395;BME280;10858;42.714;23.180;2023-02-03T00:36:08;94652.94;;;3.44;75.21
21395;BME280;10858;42.714;23.180;2023-02-03T00:38:34;94656.06;;;3.35;75.41
21395;BME280;10858;42.714;23.180;2023-02-03T00:41:00;94658.78;;;3.34;75.86
21395;BME280;10858;42.714;23.180;2023-02-03T00:43:27;94661.66;;;3.45;75.28
21395;BME280;10858;42.714;23.180;2023-02-03T00:45:53;94662.00;;;3.39;74.99
21395;BME280;10858;42.714;23.180;2023-02-03T00:48:19;94653.03;;;3.43;74.57
21395;BME280;10858;42.714;23.180;2023-02-03T00:50:49;94669.22;;;3.65;74.27
21395;BME280;10858;42.714;23.180;2023-02-03T00:53:15;94661.59;;;3.76;73.78
21395;BME280;10858;42.714;23.180;2023-02-03T00:55:42;94660.03;;;3.88;73.38
21395;BME280;10858;42.714;23.180;2023-02-03T00:58:09;94665.56;;;3.83;72.59
21395;BME280;10858;42.714;23.180;2023-02-03T01:00:35;94677.19;;;3.64;73.45
21395;BME280;10858;42.714;23.180;2023-02-03T01:03:01;94684.31;;;3.62;73.72
21395;BME280;10858;42.714;23.180;2023-02-03T01:05:28;94684.06;;;3.51;73.65
21395;BME280;10858;42.714;23.180;2023-02-03T01:07:54;94685.75;;;3.52;73.08
21395;BME280;10858;42.714;23.180;2023-02-03T01:10:20;94688.78;;;3.60;73.14
21395;BME280;10858;42.714;23.180;2023-02-03T01:12:47;94694.81;;;3.46;73.74
21395;BME280;10858;42.714;23.180;2023-02-03T01:15:13;94687.97;;;3.43;73.22
21395;BME280;10858;42.714;23.180;2023-02-03T01:17:39;94684.31;;;3.46;73.39
21395;BME280;10858;42.714;23.180;2023-02-03T01:20:05;94686.19;;;3.28;73.49
21395;BME280;10858;42.714;23.180;2023-02-03T01:22:32;94686.09;;;2.99;73.92
21395;BME280;10858;42.714;23.180;2023-02-03T01:24:58;94677.03;;;2.89;74.96
21395;BME280;10858;42.714;23.180;2023-02-03T01:27:24;94686.25;;;2.96;74.64
21395;BME280;10858;42.714;23.180;2023-02-03T01:29:50;94680.75;;;2.85;74.75
21395;BME280;10858;42.714;23.180;2023-02-03T01:32:16;94676.53;;;2.82;74.66
21395;BME280;10858;42.714;23.180;2023-02-03T01:34:42;94679.91;;;2.84;74.76
21395;BME280;10858;42.714;23.180;2023-02-03T01:37:09;94675.47;;;2.69;75.55
21395;BME280;10858;42.714;23.180;2023-02-03T01:39:35;94677.00;;;2.73;75.72
21395;BME280;10858;42.714;23.180;2023-02-03T01:42:01;94679.19;;;2.65;75.67
21395;BME280;10858;42.714;23.180;2023-02-03T01:44:46;94681.22;;;2.60;75.17
21395;BME280;10858;42.714;23.180;2023-02-03T01:47:32;94679.94;;;3.00;74.80
21395;BME280;10858;42.714;23.180;2023-02-03T01:52:36;94692.34;;;2.96;73.64
21395;BME280;10858;42.714;23.180;2023-02-03T01:55:06;94695.31;;;3.21;73.09
21395;BME280;10858;42.714;23.180;2023-02-03T01:57:57;94683.59;;;3.28;72.42
21395;BME280;10858;42.714;23.180;2023-02-03T02:00:26;94690.72;;;2.78;73.93
21395;BME280;10858;42.714;23.180;2023-02-03T02:02:53;94692.41;;;2.95;74.08
21395;BME280;10858;42.714;23.180;2023-02-03T02:05:49;94691.50;;;2.80;73.89
21395;BME280;10858;42.714;23.180;2023-02-03T02:08:19;94694.22;;;2.94;74.02
21395;BME280;10858;42.714;23.180;2023-02-03T02:10:48;94696.97;;;2.91;73.47
21395;BME280;10858;42.714;23.180;2023-02-03T02:13:15;94704.06;;;2.89;73.81
21395;BME280;10858;42.714;23.180;2023-02-03T02:27:37;94719.25;;;2.67;73.74
21395;BME280;10858;42.714;23.180;2023-02-03T02:36:09;94726.25;;;2.99;73.16
21395;BME280;10858;42.714;23.180;2023-02-03T02:38:45;94714.22;;;2.95;72.97
21395;BME280;10858;42.714;23.180;2023-02-03T02:41:17;94713.75;;;3.04;73.09
21395;BME280;10858;42.714;23.180;2023-02-03T02:46:40;94716.53;;;3.01;72.37
21395;BME280;10858;42.714;23.180;2023-02-03T02:51:44;94709.09;;;2.61;73.45
21395;BME280;10858;42.714;23.180;2023-02-03T02:54:20;94711.69;;;2.78;73.07
21395;BME280;10858;42.714;23.180;2023-02-03T02:56:51;94718.00;;;2.74;72.87
21395;BME280;10858;42.714;23.180;2023-02-03T02:59:18;94725.28;;;2.85;72.45
21395;BME280;10858;42.714;23.180;2023-02-03T03:01:44;94724.28;;;2.54;72.94
21395;BME280;10858;42.714;23.180;2023-02-03T03:04:12;94722.22;;;2.44;72.85
21395;BME280;10858;42.714;23.180;2023-02-03T03:06:43;94725.16;;;2.38;73.35
21395;BME280;10858;42.714;23.180;2023-02-03T03:09:21;94725.75;;;2.43;72.98
21395;BME280;10858;42.714;23.180;2023-02-03T03:11:56;94726.41;;;2.14;72.92
21395;BME280;10858;42.714;23.180;2023-02-03T03:14:26;94730.47;;;2.02;73.41
21395;BME280;10858;42.714;23.180;2023-02-03T03:17:00;94742.06;;;1.97;73.21
21395;BME280;10858;42.714;23.180;2023-02-03T03:19:32;94739.31;;;2.00;73.67
21395;BME280;10858;42.714;23.180;2023-02-03T03:22:03;94739.00;;;2.23;72.34
21395;BME280;10858;42.714;23.180;2023-02-03T03:24:37;94749.78;;;2.34;72.93
21395;BME280;10858;42.714;23.180;2023-02-03T03:29:54;94748.47;;;2.25;72.21
21395;BME280;10858;42.714;23.180;2023-02-03T03:32:22;94738.31;;;2.36;72.71
21395;BME280;10858;42.714;23.180;2023-02-03T03:34:49;94739.78;;;2.08;72.76
21395;BME280;10858;42.714;23.180;2023-02-03T03:39:54;94737.94;;;2.10;72.77
21395;BME280;10858;42.714;23.180;2023-02-03T03:45:09;94758.09;;;2.08;72.90
21395;BME280;10858;42.714;23.180;2023-02-03T03:50:14;94753.03;;;2.22;72.45
21395;BME280;10858;42.714;23.180;2023-02-03T03:52:43;94750.78;;;2.14;72.80
21395;BME280;10858;42.714;23.180;2023-02-03T03:55:12;94748.09;;;2.16;72.41
21395;BME280;10858;42.714;23.180;2023-02-03T03:57:53;94758.09;;;2.25;71.43
21395;BME280;10858;42.714;23.180;2023-02-03T04:00:23;94744.63;;;2.32;71.91
21395;BME280;10858;42.714;23.180;2023-02-03T04:02:52;94748.69;;;2.21;71.79
21395;BME280;10858;42.714;23.180;2023-02-03T04:05:21;94755.47;;;2.25;71.57
21395;BME280;10858;42.714;23.180;2023-02-03T04:07:47;94758.66;;;2.14;71.53
21395;BME280;10858;42.714;23.180;2023-02-03T04:10:34;94764.47;;;2.19;71.19
21395;BME280;10858;42.714;23.180;2023-02-03T04:13:01;94771.19;;;2.25;71.16
21395;BME280;10858;42.714;23.180;2023-02-03T04:15:28;94755.94;;;2.16;71.24
21395;BME280;10858;42.714;23.180;2023-02-03T04:17:55;94762.94;;;2.15;71.33
21395;BME280;10858;42.714;23.180;2023-02-03T04:20:23;94767.31;;;2.15;71.77
21395;BME280;10858;42.714;23.180;2023-02-03T04:22:50;94769.81;;;2.18;71.25
21395;BME280;10858;42.714;23.180;2023-02-03T04:25:16;94781.03;;;2.20;71.77
21395;BME280;10858;42.714;23.180;2023-02-03T04:27:43;94786.06;;;2.24;71.11
21395;BME280;10858;42.714;23.180;2023-02-03T04:30:10;94786.25;;;2.37;71.18
21395;BME280;10858;42.714;23.180;2023-02-03T04:32:36;94785.03;;;2.44;70.62
21395;BME280;10858;42.714;23.180;2023-02-03T04:35:04;94791.50;;;2.37;70.83
21395;BME280;10858;42.714;23.180;2023-02-03T04:37:31;94783.50;;;2.23;70.99
21395;BME280;10858;42.714;23.180;2023-02-03T04:39:57;94788.88;;;2.37;70.96
21395;BME280;10858;42.714;23.180;2023-02-03T04:42:24;94799.97;;;2.42;70.69
21395;BME280;10858;42.714;23.180;2023-02-03T04:44:51;94798.59;;;2.35;70.99
21395;BME280;10858;42.714;23.180;2023-02-03T04:47:18;94799.81;;;2.28;71.01
21395;BME280;10858;42.714;23.180;2023-02-03T04:49:44;94798.66;;;2.16;71.33
21395;BME280;10858;42.714;23.180;2023-02-03T04:52:11;94799.81;;;2.28;70.92
21395;BME280;10858;42.714;23.180;2023-02-03T04:54:38;94801.81;;;2.06;71.89
21395;BME280;10858;42.714;23.180;2023-02-03T04:57:04;94805.78;;;2.13;71.57
21395;BME280;10858;42.714;23.180;2023-02-03T04:59:30;94814.00;;;2.24;71.07
21395;BME280;10858;42.714;23.180;2023-02-03T05:01:57;94815.53;;;2.28;70.52
21395;BME280;10858;42.714;23.180;2023-02-03T05:04:23;94828.78;;;2.42;70.06
21395;BME280;10858;42.714;23.180;2023-02-03T05:06:50;94831.91;;;2.14;70.55
21395;BME280;10858;42.714;23.180;2023-02-03T05:09:16;94830.41;;;2.09;71.04
21395;BME280;10858;42.714;23.180;2023-02-03T05:11:42;94838.13;;;2.12;71.42
21395;BME280;10858;42.714;23.180;2023-02-03T05:14:08;94840.34;;;2.02;71.49
21395;BME280;10858;42.714;23.180;2023-02-03T05:16:34;94834.41;;;1.99;71.98
21395;BME280;10858;42.714;23.180;2023-02-03T05:19:01;94845.81;;;2.15;71.33
21395;BME280;10858;42.714;23.180;2023-02-03T05:21:27;94847.28;;;2.03;71.64
21395;BME280;10858;42.714;23.180;2023-02-03T05:23:53;94847.84;;;1.91;72.13
21395;BME280;10858;42.714;23.180;2023-02-03T05:26:19;94844.19;;;1.77;72.78
21395;BME280;10858;42.714;23.180;2023-02-03T05:28:45;94848.63;;;1.93;72.39
21395;BME280;10858;42.714;23.180;2023-02-03T05:31:11;94851.75;;;1.83;72.88
21395;BME280;10858;42.714;23.180;2023-02-03T05:33:38;94858.81;;;1.81;72.76
21395;BME280;10858;42.714;23.180;2023-02-03T05:36:04;94864.78;;;1.84;72.93
21395;BME280;10858;42.714;23.180;2023-02-03T05:38:30;94868.16;;;1.86;72.38
21395;BME280;10858;42.714;23.180;2023-02-03T05:40:56;94866.44;;;1.85;72.94
21395;BME280;10858;42.714;23.180;2023-02-03T05:43:41;94875.22;;;1.84;72.36
21395;BME280;10858;42.714;23.180;2023-02-03T05:46:07;94880.78;;;1.95;72.23
21395;BME280;10858;42.714;23.180;2023-02-03T05:48:34;94874.19;;;2.05;72.27
21395;BME280;10858;42.714;23.180;2023-02-03T05:51:00;94881.63;;;2.14;71.44
21395;BME280;10858;42.714;23.180;2023-02-03T05:53:27;94875.47;;;2.15;71.70
21395;BME280;10858;42.714;23.180;2023-02-03T05:55:53;94888.53;;;2.15;71.41
21395;BME280;10858;42.714;23.180;2023-02-03T05:58:19;94889.25;;;2.19;71.38
21395;BME280;10858;42.714;23.180;2023-02-03T06:00:46;94890.66;;;2.43;71.43
21395;BME280;10858;42.714;23.180;2023-02-03T06:03:12;94882.75;;;2.44;70.69
21395;BME280;10858;42.714;23.180;2023-02-03T06:05:38;94885.13;;;2.49;69.74
21395;BME280;10858;42.714;23.180;2023-02-03T06:08:07;94895.47;;;2.52;69.50
21395;BME280;10858;42.714;23.180;2023-02-03T06:10:34;94891.16;;;2.51;70.19
21395;BME280;10858;42.714;23.180;2023-02-03T06:13:11;94892.94;;;2.68;69.70
21395;BME280;10858;42.714;23.180;2023-02-03T06:15:38;94893.00;;;2.83;68.62
21395;BME280;10858;42.714;23.180;2023-02-03T06:18:04;94894.69;;;2.50;69.23
21395;BME280;10858;42.714;23.180;2023-02-03T06:20:31;94905.34;;;2.81;68.72
21395;BME280;10858;42.714;23.180;2023-02-03T06:22:57;94900.50;;;2.74;68.52
21395;BME280;10858;42.714;23.180;2023-02-03T06:25:23;94903.66;;;2.80;68.26
21395;BME280;10858;42.714;23.180;2023-02-03T06:27:50;94904.41;;;2.65;68.59
21395;BME280;10858;42.714;23.180;2023-02-03T06:30:16;94912.44;;;2.79;67.98
21395;BME280;10858;42.714;23.180;2023-02-03T06:32:42;94907.34;;;2.76;67.96
21395;BME280;10858;42.714;23.180;2023-02-03T06:35:09;94909.94;;;2.59;67.94
21395;BME280;10858;42.714;23.180;2023-02-03T06:37:35;94902.94;;;2.77;67.57
21395;BME280;10858;42.714;23.180;2023-02-03T06:40:02;94908.72;;;2.83;67.60
21395;BME280;10858;42.714;23.180;2023-02-03T06:42:29;94916.44;;;3.03;66.81
21395;BME280;10858;42.714;23.180;2023-02-03T06:44:55;94914.13;;;2.80;67.46
21395;BME280;10858;42.714;23.180;2023-02-03T06:47:22;94905.94;;;2.52;68.04
21395;BME280;10858;42.714;23.180;2023-02-03T06:49:48;94899.78;;;2.53;68.56
21395;BME280;10858;42.714;23.180;2023-02-03T06:52:14;94913.66;;;2.72;67.63
21395;BME280;10858;42.714;23.180;2023-02-03T06:54:41;94918.34;;;2.66;67.46
21395;BME280;10858;42.714;23.180;2023-02-03T06:57:07;94915.16;;;2.42;68.47
21395;BME280;10858;42.714;23.180;2023-02-03T06:59:33;94919.44;;;2.62;68.39
21395;BME280;10858;42.714;23.180;2023-02-03T07:02:02;94929.34;;;2.55;68.84
21395;BME280;10858;42.714;23.180;2023-02-03T07:04:29;94922.22;;;2.76;67.71
21395;BME280;10858;42.714;23.180;2023-02-03T07:06:58;94918.06;;;2.72;67.48
21395;BME280;10858;42.714;23.180;2023-02-03T07:09:24;94924.44;;;2.66;67.36
21395;BME280;10858;42.714;23.180;2023-02-03T07:11:50;94932.00;;;2.72;67.43
21395;BME280;10858;42.714;23.180;2023-02-03T07:14:17;94935.69;;;2.68;67.99
21395;BME280;10858;42.714;23.180;2023-02-03T07:16:43;94937.84;;;2.77;67.68
21395;BME280;10858;42.714;23.180;2023-02-03T07:19:09;94932.63;;;2.94;66.51
21395;BME280;10858;42.714;23.180;2023-02-03T07:21:35;94944.66;;;2.98;66.66
21395;BME280;10858;42.714;23.180;2023-02-03T07:24:01;94946.41;;;3.15;65.91
21395;BME280;10858;42.714;23.180;2023-02-03T07:26:28;94946.00;;;3.39;65.50
21395;BME280;10858;42.714;23.180;2023-02-03T07:28:54;94956.03;;;3.49;64.86
21395;BME280;10858;42.714;23.180;2023-02-03T07:31:20;94954.69;;;3.57;64.06
21395;BME280;10858;42.714;23.180;2023-02-03T07:33:47;94955.97;;;3.50;63.79
21395;BME280;10858;42.714;23.180;2023-02-03T07:36:13;94951.56;;;3.51;64.12
21395;BME280;10858;42.714;23.180;2023-02-03T07:38:39;94963.13;;;3.47;64.56
21395;BME280;10858;42.714;23.180;2023-02-03T07:41:06;94957.72;;;3.67;63.67
21395;BME280;10858;42.714;23.180;2023-02-03T07:43:32;94953.09;;;3.87;63.67
21395;BME280;10858;42.714;23.180;2023-02-03T07:45:59;94958.41;;;4.34;62.36
21395;BME280;10858;42.714;23.180;2023-02-03T07:48:26;94956.97;;;4.44;61.21
21395;BME280;10858;42.714;23.180;2023-02-03T07:50:53;94953.72;;;4.23;61.97
21395;BME280;10858;42.714;23.180;2023-02-03T07:53:19;94956.16;;;4.11;61.25
21395;BME280;10858;42.714;23.180;2023-02-03T07:55:45;94961.13;;;4.32;60.95
21395;BME280;10858;42.714;23.180;2023-02-03T07:58:11;94979.16;;;4.54;61.17
21395;BME280;10858;42.714;23.180;2023-02-03T08:00:38;94972.41;;;4.95;59.44
21395;BME280;10858;42.714;23.180;2023-02-03T08:03:04;94981.09;;;4.66;60.44
21395;BME280;10858;42.714;23.180;2023-02-03T08:05:30;94980.34;;;4.64;59.62
21395;BME280;10858;42.714;23.180;2023-02-03T08:07:57;94975.84;;;4.51;59.81
21395;BME280;10858;42.714;23.180;2023-02-03T08:10:24;94985.50;;;4.97;60.57
21395;BME280;10858;42.714;23.180;2023-02-03T08:12:53;94984.56;;;5.28;57.40
21395;BME280;10858;42.714;23.180;2023-02-03T08:15:19;94985.50;;;5.27;57.30
21395;BME280;10858;42.714;23.180;2023-02-03T08:17:46;94979.69;;;5.06;58.72
21395;BME280;10858;42.714;23.180;2023-02-03T08:20:13;94973.63;;;4.74;59.59
21395;BME280;10858;42.714;23.180;2023-02-03T08:22:39;94969.94;;;4.63;59.24
21395;BME280;10858;42.714;23.180;2023-02-03T08:25:06;94971.88;;;4.75;59.51
21395;BME280;10858;42.714;23.180;2023-02-03T08:27:33;94984.56;;;4.82;59.30
21395;BME280;10858;42.714;23.180;2023-02-03T08:29:59;94985.50;;;4.50;59.11
21395;BME280;10858;42.714;23.180;2023-02-03T08:32:26;94983.31;;;4.58;60.40
21395;BME280;10858;42.714;23.180;2023-02-03T08:34:53;94997.03;;;4.63;60.85
21395;BME280;10858;42.714;23.180;2023-02-03T08:37:22;94990.84;;;4.49;61.38
21395;BME280;10858;42.714;23.180;2023-02-03T08:39:52;95002.75;;;5.16;61.05
21395;BME280;10858;42.714;23.180;2023-02-03T08:42:19;95006.81;;;5.22;58.71
21395;BME280;10858;42.714;23.180;2023-02-03T08:44:45;95007.41;;;6.00;56.14
21395;BME280;10858;42.714;23.180;2023-02-03T08:47:11;95000.78;;;6.50;55.39
21395;BME280;10858;42.714;23.180;2023-02-03T08:49:38;95017.34;;;7.07;53.91
21395;BME280;10858;42.714;23.180;2023-02-03T08:52:06;95010.03;;;7.24;52.82
21395;BME280;10858;42.714;23.180;2023-02-03T08:54:32;95011.56;;;7.14;54.28
21395;BME280;10858;42.714;23.180;2023-02-03T08:56:58;95015.34;;;6.55;55.28
21395;BME280;10858;42.714;23.180;2023-02-03T08:59:24;95011.53;;;5.61;56.07
21395;BME280;10858;42.714;23.180;2023-02-03T09:01:52;95005.78;;;5.25;58.99
21395;BME280;10858;42.714;23.180;2023-02-03T09:04:20;95002.34;;;5.38;59.62
21395;BME280;10858;42.714;23.180;2023-02-03T09:06:50;95013.47;;;4.98;59.35
21395;BME280;10858;42.714;23.180;2023-02-03T09:09:17;95003.38;;;4.90;59.35
21395;BME280;10858;42.714;23.180;2023-02-03T09:11:43;95002.00;;;5.14;58.83
21395;BME280;10858;42.714;23.180;2023-02-03T09:14:09;95002.69;;;6.20;56.59
21395;BME280;10858;42.714;23.180;2023-02-03T09:16:36;94998.25;;;5.92;56.68
21395;BME280;10858;42.714;23.180;2023-02-03T09:19:02;95013.06;;;6.23;56.02
21395;BME280;10858;42.714;23.180;2023-02-03T09:21:28;95006.00;;;6.23;55.74
21395;BME280;10858;42.714;23.180;2023-02-03T09:23:54;95014.03;;;6.76;53.64
21395;BME280;10858;42.714;23.180;2023-02-03T09:26:21;95014.50;;;6.83;53.10
21395;BME280;10858;42.714;23.180;2023-02-03T09:28:47;95008.97;;;7.27;52.12
21395;BME280;10858;42.714;23.180;2023-02-03T09:31:14;95004.88;;;6.82;54.93
21395;BME280;10858;42.714;23.180;2023-02-03T09:33:42;94992.59;;;6.54;53.74
21395;BME280;10858;42.714;23.180;2023-02-03T09:36:09;95007.66;;;6.66;53.54
21395;BME280;10858;42.714;23.180;2023-02-03T09:38:36;95003.81;;;6.99;54.16
21395;BME280;10858;42.714;23.180;2023-02-03T09:43:54;95001.59;;;7.71;50.61
21395;BME280;10858;42.714;23.180;2023-02-03T09:46:27;95003.22;;;6.94;51.47
21395;BME280;10858;42.714;23.180;2023-02-03T09:48:58;94999.25;;;6.60;53.07
21395;BME280;10858;42.714;23.180;2023-02-03T09:51:33;94995.59;;;7.03;52.08
21395;BME280;10858;42.714;23.180;2023-02-03T09:56:36;94980.66;;;7.16;51.83
21395;BME280;10858;42.714;23.180;2023-02-03T09:59:05;94984.28;;;7.28;51.71
21395;BME280;10858;42.714;23.180;2023-02-03T10:01:56;94990.09;;;7.59;50.29
21395;BME280;10858;42.714;23.180;2023-02-03T10:04:38;94970.56;;;7.23;52.42
21395;BME280;10858;42.714;23.180;2023-02-03T10:07:45;94973.91;;;6.17;54.31
21395;BME280;10858;42.714;23.180;2023-02-03T10:13:54;94972.34;;;7.74;51.83
21395;BME280;10858;42.714;23.180;2023-02-03T10:18:48;94967.38;;;7.69;50.86
21395;BME280;10858;42.714;23.180;2023-02-03T10:21:46;94960.50;;;7.67;48.73
21395;BME280;10858;42.714;23.180;2023-02-03T10:26:59;94947.78;;;8.96;48.27
21395;BME280;10858;42.714;23.180;2023-02-03T10:29:38;94947.41;;;8.90;46.49
21395;BME280;10858;42.714;23.180;2023-02-03T10:32:13;94955.47;;;8.39;46.65
21395;BME280;10858;42.714;23.180;2023-02-03T10:34:43;94950.13;;;7.39;46.65
21395;BME280;10858;42.714;23.180;2023-02-03T10:37:48;94957.69;;;6.77;50.53
21395;BME280;10858;42.714;23.180;2023-02-03T10:40:16;94949.69;;;6.52;47.53
21395;BME280;10858;42.714;23.180;2023-02-03T10:42:45;94949.19;;;5.91;48.15
21395;BME280;10858;42.714;23.180;2023-02-03T10:45:35;94955.88;;;5.53;49.08
21395;BME280;10858;42.714;23.180;2023-02-03T10:48:03;94938.06;;;6.00;49.85
21395;BME280;10858;42.714;23.180;2023-02-03T10:50:30;94956.84;;;7.30;46.72
21395;BME280;10858;42.714;23.180;2023-02-03T10:58:31;94949.06;;;7.54;45.66
21395;BME280;10858;42.714;23.180;2023-02-03T11:01:10;94950.78;;;7.16;47.24
21395;BME280;10858;42.714;23.180;2023-02-03T11:03:59;94950.84;;;6.34;49.37
21395;BME280;10858;42.714;23.180;2023-02-03T11:06:25;94946.56;;;5.17;52.61
21395;BME280;10858;42.714;23.180;2023-02-03T11:08:52;94951.31;;;4.81;52.24
21395;BME280;10858;42.714;23.180;2023-02-03T11:11:27;94942.72;;;4.93;53.15
21395;BME280;10858;42.714;23.180;2023-02-03T11:16:31;94931.19;;;5.83;49.53
21395;BME280;10858;42.714;23.180;2023-02-03T11:19:13;94907.22;;;6.16;47.85
21395;BME280;10858;42.714;23.180;2023-02-03T11:29:30;94912.25;;;6.74;50.79
21395;BME280;10858;42.714;23.180;2023-02-03T11:32:03;94911.63;;;7.10;48.23
21395;BME280;10858;42.714;23.180;2023-02-03T11:34:33;94910.41;;;7.40;47.74
21395;BME280;10858;42.714;23.180;2023-02-03T11:37:32;94920.25;;;6.99;47.54
21395;BME280;10858;42.714;23.180;2023-02-03T11:42:41;94905.19;;;7.01;44.32
21395;BME280;10858;42.714;23.180;2023-02-03T11:56:49;94909.19;;;6.27;43.90
21395;BME280;10858;42.714;23.180;2023-02-03T11:59:53;94897.16;;;6.49;45.93
21395;BME280;10858;42.714;23.180;2023-02-03T12:07:49;94910.81;;;5.15;46.90
21395;BME280;10858;42.714;23.180;2023-02-03T12:16:26;94910.63;;;5.90;45.37
21395;BME280;10858;42.714;23.180;2023-02-03T12:29:55;94916.06;;;7.09;41.67
21395;BME280;10858;42.714;23.180;2023-02-03T12:32:35;94909.78;;;6.98;43.36
21395;BME280;10858;42.714;23.180;2023-02-03T12:43:29;94895.97;;;8.57;40.88
21395;BME280;10858;42.714;23.180;2023-02-03T12:46:02;94894.13;;;8.94;40.34
21395;BME280;10858;42.714;23.180;2023-02-03T12:51:53;94903.38;;;10.04;40.21
21395;BME280;10858;42.714;23.180;2023-02-03T12:56:52;94896.56;;;8.97;41.57
21395;BME280;10858;42.714;23.180;2023-02-03T12:59:24;94891.44;;;9.18;40.62
21395;BME280;10858;42.714;23.180;2023-02-03T13:01:53;94883.56;;;8.34;43.26
21395;BME280;10858;42.714;23.180;2023-02-03T13:04:35;94894.84;;;7.11;45.65
21395;BME280;10858;42.714;23.180;2023-02-03T13:07:37;94889.50;;;6.32;47.53
21395;BME280;10858;42.714;23.180;2023-02-03T13:10:21;94878.72;;;5.66;47.95
21395;BME280;10858;42.714;23.180;2023-02-03T13:12:54;94878.63;;;5.68;48.97
21395;BME280;10858;42.714;23.180;2023-02-03T13:15:37;94876.34;;;5.34;49.79
21395;BME280;10858;42.714;23.180;2023-02-03T13:18:28;94863.94;;;6.73;47.87
21395;BME280;10858;42.714;23.180;2023-02-03T13:20:56;94855.44;;;8.21;43.53
21395;BME280;10858;42.714;23.180;2023-02-03T13:23:23;94858.03;;;7.97;45.05
21395;BME280;10858;42.714;23.180;2023-02-03T13:31:22;94868.94;;;5.54;49.06
21395;BME280;10858;42.714;23.180;2023-02-03T13:42:20;94874.66;;;5.18;49.79
21395;BME280;10858;42.714;23.180;2023-02-03T13:47:35;94872.78;;;5.21;50.72
21395;BME280;10858;42.714;23.180;2023-02-03T13:50:14;94870.69;;;5.26;51.52
21395;BME280;10858;42.714;23.180;2023-02-03T13:52:51;94873.72;;;5.62;51.54
21395;BME280;10858;42.714;23.180;2023-02-03T13:55:38;94872.28;;;7.32;47.99
21395;BME280;10858;42.714;23.180;2023-02-03T13:58:17;94873.69;;;7.37;45.44
21395;BME280;10858;42.714;23.180;2023-02-03T14:05:49;94872.81;;;5.49;49.02
21395;BME280;10858;42.714;23.180;2023-02-03T14:16:45;94868.16;;;4.80;50.87
21395;BME280;10858;42.714;23.180;2023-02-03T14:24:34;94840.53;;;4.73;48.00
21395;BME280;10858;42.714;23.180;2023-02-03T14:27:04;94837.81;;;4.61;49.25
21395;BME280;10858;42.714;23.180;2023-02-03T14:29:35;94838.56;;;4.47;48.63
21395;BME280;10858;42.714;23.180;2023-02-03T14:32:03;94850.88;;;4.31;49.17
21395;BME280;10858;42.714;23.180;2023-02-03T14:37:21;94864.78;;;4.33;49.19
21395;BME280;10858;42.714;23.180;2023-02-03T14:48:20;94864.59;;;4.52;48.29
21395;BME280;10858;42.714;23.180;2023-02-03T14:58:52;94846.09;;;4.53;48.15
21395;BME280;10858;42.714;23.180;2023-02-03T15:06:43;94822.00;;;4.90;48.90
21395;BME280;10858;42.714;23.180;2023-02-03T15:11:53;94810.44;;;4.79;48.85
21395;BME280;10858;42.714;23.180;2023-02-03T15:14:26;94809.72;;;4.91;48.87
21395;BME280;10858;42.714;23.180;2023-02-03T15:17:10;94801.97;;;4.74;49.87
21395;BME280;10858;42.714;23.180;2023-02-03T15:19:41;94796.31;;;4.66;49.71
21395;BME280;10858;42.714;23.180;2023-02-03T15:22:24;94797.59;;;4.29;51.65
21395;BME280;10858;42.714;23.180;2023-02-03T15:24:56;94802.44;;;4.21;51.82
21395;BME280;10858;42.714;23.180;2023-02-03T15:27:25;94794.09;;;4.14;51.16
21395;BME280;10858;42.714;23.180;2023-02-03T15:29:52;94790.84;;;4.25;51.05
21395;BME280;10858;42.714;23.180;2023-02-03T15:32:29;94796.81;;;3.97;50.86
21395;BME280;10858;42.714;23.180;2023-02-03T15:34:58;94794.72;;;3.88;50.96
21395;BME280;10858;42.714;23.180;2023-02-03T15:40:15;94790.41;;;3.72;51.54
21395;BME280;10858;42.714;23.180;2023-02-03T15:43:00;94784.06;;;3.60;51.44
21395;BME280;10858;42.714;23.180;2023-02-03T15:45:32;94785.41;;;3.52;51.44
21395;BME280;10858;42.714;23.180;2023-02-03T15:50:48;94789.88;;;3.34;51.96
21395;BME280;10858;42.714;23.180;2023-02-03T15:53:28;94789.00;;;3.18;52.39
21395;BME280;10858;42.714;23.180;2023-02-03T15:55:58;94783.44;;;3.24;52.26
21395;BME280;10858;42.714;23.180;2023-02-03T15:58:28;94774.97;;;3.19;53.48
21395;BME280;10858;42.714;23.180;2023-02-03T16:01:00;94773.94;;;3.21;52.77
21395;BME280;10858;42.714;23.180;2023-02-03T16:03:43;94773.06;;;3.05;53.53
21395;BME280;10858;42.714;23.180;2023-02-03T16:08:44;94771.75;;;2.81;55.53
21395;BME280;10858;42.714;23.180;2023-02-03T16:11:37;94771.78;;;2.64;55.43
21395;BME280;10858;42.714;23.180;2023-02-03T16:14:06;94765.31;;;2.54;55.82
21395;BME280;10858;42.714;23.180;2023-02-03T16:16:48;94762.94;;;2.49;56.21
21395;BME280;10858;42.714;23.180;2023-02-03T16:19:23;94759.41;;;2.50;55.60
21395;BME280;10858;42.714;23.180;2023-02-03T16:30:23;94728.81;;;2.68;54.73
21395;BME280;10858;42.714;23.180;2023-02-03T16:35:57;94721.50;;;2.90;54.04